sensor_id;sensor_type;location;lat;lon;timestamp;P1;durP1;ratioP1;P2;durP2;ratioP2
51248;SDS011;39642;47.556;18.728;2023-11-19T00:00:22;32.22;;;13.20;;
51248;SDS011;39642;47.556;18.728;2023-11-19T00:02:49;34.10;;;13.23;;
51248;SDS011;39642;47.556;18.728;2023-11-19T00:05:14;29.48;;;12.65;;
51248;SDS011;39642;47.556;18.728;2023-11-19T00:07:40;34.30;;;14.73;;
51248;SDS011;39642;47.556;18.728;2023-11-19T00:10:07;42.08;;;15.35;;
51248;SDS011;39642;47.556;18.728;2023-11-19T00:12:36;35.15;;;14.32;;
51248;SDS011;39642;47.556;18.728;2023-11-19T00:15:08;32.03;;;14.70;;
51248;SDS011;39642;47.556;18.728;2023-11-19T00:17:40;36.47;;;13.95;;
51248;SDS011;39642;47.556;18.728;2023-11-19T00:20:10;27.02;;;14.13;;
51248;SDS011;39642;47.556;18.728;2023-11-19T00:22:37;40.60;;;14.40;;
51248;SDS011;39642;47.556;18.728;2023-11-19T00:25:03;29.12;;;13.88;;
51248;SDS011;39642;47.556;18.728;2023-11-19T00:27:29;38.78;;;13.93;;
51248;SDS011;39642;47.556;18.728;2023-11-19T00:29:55;36.00;;;13.25;;
51248;SDS011;39642;47.556;18.728;2023-11-19T00:32:22;29.73;;;12.48;;
51248;SDS011;39642;47.556;18.728;2023-11-19T00:34:48;29.02;;;12.25;;
51248;SDS011;39642;47.556;18.728;2023-11-19T00:37:14;33.22;;;12.63;;
51248;SDS011;39642;47.556;18.728;2023-11-19T00:39:43;24.73;;;12.48;;
51248;SDS011;39642;47.556;18.728;2023-11-19T00:42:09;27.50;;;11.90;;
51248;SDS011;39642;47.556;18.728;2023-11-19T00:44:36;27.40;;;12.15;;
51248;SDS011;39642;47.556;18.728;2023-11-19T00:47:02;29.77;;;12.15;;
51248;SDS011;39642;47.556;18.728;2023-11-19T00:49:28;28.92;;;12.77;;
51248;SDS011;39642;47.556;18.728;2023-11-19T00:51:54;29.63;;;12.13;;
51248;SDS011;39642;47.556;18.728;2023-11-19T00:54:20;29.10;;;12.23;;
51248;SDS011;39642;47.556;18.728;2023-11-19T00:56:46;30.00;;;12.95;;
51248;SDS011;39642;47.556;18.728;2023-11-19T00:59:12;29.23;;;13.20;;
51248;SDS011;39642;47.556;18.728;2023-11-19T01:01:39;28.42;;;13.23;;
51248;SDS011;39642;47.556;18.728;2023-11-19T01:04:05;27.02;;;13.00;;
51248;SDS011;39642;47.556;18.728;2023-11-19T01:06:31;32.47;;;13.43;;
51248;SDS011;39642;47.556;18.728;2023-11-19T01:08:58;31.50;;;13.40;;
51248;SDS011;39642;47.556;18.728;2023-11-19T01:11:24;27.30;;;12.68;;
51248;SDS011;39642;47.556;18.728;2023-11-19T01:13:51;27.30;;;12.63;;
51248;SDS011;39642;47.556;18.728;2023-11-19T01:16:17;25.50;;;13.13;;
51248;SDS011;39642;47.556;18.728;2023-11-19T01:18:44;28.48;;;13.82;;
51248;SDS011;39642;47.556;18.728;2023-11-19T01:21:13;29.17;;;14.27;;
51248;SDS011;39642;47.556;18.728;2023-11-19T01:23:40;27.33;;;14.60;;
51248;SDS011;39642;47.556;18.728;2023-11-19T01:26:09;32.63;;;14.65;;
51248;SDS011;39642;47.556;18.728;2023-11-19T01:28:36;29.35;;;13.90;;
51248;SDS011;39642;47.556;18.728;2023-11-19T01:31:02;31.62;;;14.40;;
51248;SDS011;39642;47.556;18.728;2023-11-19T01:33:29;28.05;;;13.57;;
51248;SDS011;39642;47.556;18.728;2023-11-19T01:35:55;27.23;;;12.27;;
51248;SDS011;39642;47.556;18.728;2023-11-19T01:38:24;26.23;;;12.45;;
51248;SDS011;39642;47.556;18.728;2023-11-19T01:40:50;35.22;;;13.15;;
51248;SDS011;39642;47.556;18.728;2023-11-19T01:43:37;30.05;;;12.50;;
51248;SDS011;39642;47.556;18.728;2023-11-19T01:46:04;27.00;;;12.20;;
51248;SDS011;39642;47.556;18.728;2023-11-19T01:48:31;27.13;;;11.43;;
51248;SDS011;39642;47.556;18.728;2023-11-19T01:50:59;24.58;;;11.88;;
51248;SDS011;39642;47.556;18.728;2023-11-19T01:53:26;26.98;;;12.02;;
51248;SDS011;39642;47.556;18.728;2023-11-19T01:55:53;22.00;;;11.32;;
51248;SDS011;39642;47.556;18.728;2023-11-19T01:58:19;22.87;;;10.90;;
51248;SDS011;39642;47.556;18.728;2023-11-19T02:00:45;23.70;;;11.38;;
51248;SDS011;39642;47.556;18.728;2023-11-19T02:03:11;22.67;;;11.43;;
51248;SDS011;39642;47.556;18.728;2023-11-19T02:05:38;26.40;;;11.75;;
51248;SDS011;39642;47.556;18.728;2023-11-19T02:08:05;23.55;;;11.15;;
51248;SDS011;39642;47.556;18.728;2023-11-19T02:10:31;25.95;;;11.25;;
51248;SDS011;39642;47.556;18.728;2023-11-19T02:12:58;23.30;;;11.68;;
51248;SDS011;39642;47.556;18.728;2023-11-19T02:15:24;24.70;;;11.23;;
51248;SDS011;39642;47.556;18.728;2023-11-19T02:17:50;22.73;;;10.27;;
51248;SDS011;39642;47.556;18.728;2023-11-19T02:20:17;24.35;;;10.88;;
51248;SDS011;39642;47.556;18.728;2023-11-19T02:22:46;22.02;;;10.25;;
51248;SDS011;39642;47.556;18.728;2023-11-19T02:25:31;24.25;;;10.02;;
51248;SDS011;39642;47.556;18.728;2023-11-19T02:27:59;19.48;;;9.18;;
51248;SDS011;39642;47.556;18.728;2023-11-19T02:30:26;18.52;;;9.27;;
51248;SDS011;39642;47.556;18.728;2023-11-19T02:32:56;16.85;;;8.93;;
51248;SDS011;39642;47.556;18.728;2023-11-19T02:35:28;19.37;;;8.18;;
51248;SDS011;39642;47.556;18.728;2023-11-19T02:37:57;17.85;;;8.25;;
51248;SDS011;39642;47.556;18.728;2023-11-19T02:40:25;16.55;;;7.62;;
51248;SDS011;39642;47.556;18.728;2023-11-19T02:42:53;19.27;;;7.70;;
51248;SDS011;39642;47.556;18.728;2023-11-19T02:45:24;16.10;;;8.02;;
51248;SDS011;39642;47.556;18.728;2023-11-19T02:47:51;15.07;;;7.00;;
51248;SDS011;39642;47.556;18.728;2023-11-19T02:50:18;15.65;;;7.45;;
51248;SDS011;39642;47.556;18.728;2023-11-19T02:52:51;16.77;;;7.55;;
51248;SDS011;39642;47.556;18.728;2023-11-19T02:55:19;18.42;;;8.45;;
51248;SDS011;39642;47.556;18.728;2023-11-19T02:57:45;16.90;;;8.38;;
51248;SDS011;39642;47.556;18.728;2023-11-19T03:00:14;18.10;;;8.50;;
51248;SDS011;39642;47.556;18.728;2023-11-19T03:02:41;19.30;;;9.13;;
51248;SDS011;39642;47.556;18.728;2023-11-19T03:05:14;19.33;;;9.70;;
51248;SDS011;39642;47.556;18.728;2023-11-19T03:07:42;17.58;;;8.30;;
51248;SDS011;39642;47.556;18.728;2023-11-19T03:10:11;21.10;;;8.15;;
51248;SDS011;39642;47.556;18.728;2023-11-19T03:12:39;17.92;;;7.90;;
51248;SDS011;39642;47.556;18.728;2023-11-19T03:15:06;15.70;;;7.10;;
51248;SDS011;39642;47.556;18.728;2023-11-19T03:17:33;16.27;;;7.60;;
51248;SDS011;39642;47.556;18.728;2023-11-19T03:20:00;18.62;;;8.15;;
51248;SDS011;39642;47.556;18.728;2023-11-19T03:22:26;18.75;;;8.02;;
51248;SDS011;39642;47.556;18.728;2023-11-19T03:24:52;18.52;;;7.35;;
51248;SDS011;39642;47.556;18.728;2023-11-19T03:27:18;17.58;;;7.90;;
51248;SDS011;39642;47.556;18.728;2023-11-19T03:29:44;16.65;;;7.70;;
51248;SDS011;39642;47.556;18.728;2023-11-19T03:32:10;17.12;;;7.68;;
51248;SDS011;39642;47.556;18.728;2023-11-19T03:34:37;15.13;;;7.75;;
51248;SDS011;39642;47.556;18.728;2023-11-19T03:37:03;17.52;;;8.05;;
51248;SDS011;39642;47.556;18.728;2023-11-19T03:39:29;19.20;;;7.75;;
51248;SDS011;39642;47.556;18.728;2023-11-19T03:41:55;16.15;;;7.18;;
51248;SDS011;39642;47.556;18.728;2023-11-19T03:44:21;14.95;;;7.20;;
51248;SDS011;39642;47.556;18.728;2023-11-19T03:46:46;22.33;;;8.07;;
51248;SDS011;39642;47.556;18.728;2023-11-19T03:49:12;16.10;;;7.25;;
51248;SDS011;39642;47.556;18.728;2023-11-19T03:51:38;15.93;;;6.55;;
51248;SDS011;39642;47.556;18.728;2023-11-19T03:54:04;15.75;;;6.95;;
51248;SDS011;39642;47.556;18.728;2023-11-19T03:56:32;15.60;;;6.65;;
51248;SDS011;39642;47.556;18.728;2023-11-19T03:58:58;14.98;;;6.30;;
51248;SDS011;39642;47.556;18.728;2023-11-19T04:01:24;14.52;;;6.03;;
51248;SDS011;39642;47.556;18.728;2023-11-19T04:03:50;13.60;;;5.97;;
51248;SDS011;39642;47.556;18.728;2023-11-19T04:06:15;14.13;;;6.00;;
51248;SDS011;39642;47.556;18.728;2023-11-19T04:08:41;14.38;;;5.90;;
51248;SDS011;39642;47.556;18.728;2023-11-19T04:11:07;16.42;;;6.37;;
51248;SDS011;39642;47.556;18.728;2023-11-19T04:13:34;13.82;;;5.57;;
51248;SDS011;39642;47.556;18.728;2023-11-19T04:16:00;15.88;;;6.03;;
51248;SDS011;39642;47.556;18.728;2023-11-19T04:18:26;12.70;;;5.70;;
51248;SDS011;39642;47.556;18.728;2023-11-19T04:20:52;13.40;;;5.65;;
51248;SDS011;39642;47.556;18.728;2023-11-19T04:23:18;14.65;;;6.07;;
51248;SDS011;39642;47.556;18.728;2023-11-19T04:25:44;14.23;;;5.53;;
51248;SDS011;39642;47.556;18.728;2023-11-19T04:28:10;12.88;;;5.90;;
51248;SDS011;39642;47.556;18.728;2023-11-19T04:30:36;12.37;;;5.75;;
51248;SDS011;39642;47.556;18.728;2023-11-19T04:33:03;12.55;;;5.37;;
51248;SDS011;39642;47.556;18.728;2023-11-19T04:35:29;12.27;;;5.20;;
51248;SDS011;39642;47.556;18.728;2023-11-19T04:37:55;13.40;;;5.30;;
51248;SDS011;39642;47.556;18.728;2023-11-19T04:40:23;13.55;;;5.45;;
51248;SDS011;39642;47.556;18.728;2023-11-19T04:42:49;13.45;;;5.43;;
51248;SDS011;39642;47.556;18.728;2023-11-19T04:45:14;12.23;;;5.25;;
51248;SDS011;39642;47.556;18.728;2023-11-19T04:47:44;13.20;;;5.78;;
51248;SDS011;39642;47.556;18.728;2023-11-19T04:50:10;13.35;;;5.40;;
51248;SDS011;39642;47.556;18.728;2023-11-19T04:52:39;12.43;;;5.22;;
51248;SDS011;39642;47.556;18.728;2023-11-19T04:55:10;12.20;;;5.03;;
51248;SDS011;39642;47.556;18.728;2023-11-19T04:57:40;12.32;;;5.30;;
51248;SDS011;39642;47.556;18.728;2023-11-19T05:00:06;12.10;;;5.25;;
51248;SDS011;39642;47.556;18.728;2023-11-19T05:02:34;12.37;;;4.97;;
51248;SDS011;39642;47.556;18.728;2023-11-19T05:05:01;11.77;;;5.07;;
51248;SDS011;39642;47.556;18.728;2023-11-19T05:07:28;13.00;;;5.32;;
51248;SDS011;39642;47.556;18.728;2023-11-19T05:09:53;13.13;;;5.30;;
51248;SDS011;39642;47.556;18.728;2023-11-19T05:12:20;12.35;;;4.70;;
51248;SDS011;39642;47.556;18.728;2023-11-19T05:14:46;12.70;;;4.93;;
51248;SDS011;39642;47.556;18.728;2023-11-19T05:17:15;12.10;;;5.10;;
51248;SDS011;39642;47.556;18.728;2023-11-19T05:19:43;12.35;;;5.03;;
51248;SDS011;39642;47.556;18.728;2023-11-19T05:22:09;11.85;;;5.12;;
51248;SDS011;39642;47.556;18.728;2023-11-19T05:24:35;11.90;;;4.95;;
51248;SDS011;39642;47.556;18.728;2023-11-19T05:27:01;11.40;;;5.03;;
51248;SDS011;39642;47.556;18.728;2023-11-19T05:29:27;12.68;;;4.90;;
51248;SDS011;39642;47.556;18.728;2023-11-19T05:31:54;11.52;;;5.00;;
51248;SDS011;39642;47.556;18.728;2023-11-19T05:34:21;11.70;;;4.82;;
51248;SDS011;39642;47.556;18.728;2023-11-19T05:36:46;13.07;;;4.82;;
51248;SDS011;39642;47.556;18.728;2023-11-19T05:39:13;11.20;;;5.00;;
51248;SDS011;39642;47.556;18.728;2023-11-19T05:41:38;11.57;;;5.00;;
51248;SDS011;39642;47.556;18.728;2023-11-19T05:44:04;10.85;;;4.60;;
51248;SDS011;39642;47.556;18.728;2023-11-19T05:46:30;11.15;;;4.70;;
51248;SDS011;39642;47.556;18.728;2023-11-19T05:48:56;11.30;;;4.93;;
51248;SDS011;39642;47.556;18.728;2023-11-19T05:51:22;11.82;;;4.65;;
51248;SDS011;39642;47.556;18.728;2023-11-19T05:53:49;11.57;;;4.70;;
51248;SDS011;39642;47.556;18.728;2023-11-19T05:56:15;12.70;;;4.93;;
51248;SDS011;39642;47.556;18.728;2023-11-19T05:58:47;11.45;;;4.75;;
51248;SDS011;39642;47.556;18.728;2023-11-19T06:01:14;11.35;;;4.97;;
51248;SDS011;39642;47.556;18.728;2023-11-19T06:03:40;11.18;;;4.93;;
51248;SDS011;39642;47.556;18.728;2023-11-19T06:06:08;10.52;;;4.78;;
51248;SDS011;39642;47.556;18.728;2023-11-19T06:08:35;10.45;;;4.45;;
51248;SDS011;39642;47.556;18.728;2023-11-19T06:11:01;12.37;;;4.82;;
51248;SDS011;39642;47.556;18.728;2023-11-19T06:13:27;11.30;;;4.80;;
51248;SDS011;39642;47.556;18.728;2023-11-19T06:15:52;11.32;;;4.90;;
51248;SDS011;39642;47.556;18.728;2023-11-19T06:18:18;13.02;;;4.93;;
51248;SDS011;39642;47.556;18.728;2023-11-19T06:20:45;10.88;;;4.80;;
51248;SDS011;39642;47.556;18.728;2023-11-19T06:23:11;12.43;;;4.68;;
51248;SDS011;39642;47.556;18.728;2023-11-19T06:25:37;11.48;;;4.60;;
51248;SDS011;39642;47.556;18.728;2023-11-19T06:28:03;11.20;;;4.62;;
51248;SDS011;39642;47.556;18.728;2023-11-19T06:30:30;11.32;;;4.55;;
51248;SDS011;39642;47.556;18.728;2023-11-19T06:32:58;10.80;;;4.50;;
51248;SDS011;39642;47.556;18.728;2023-11-19T06:35:24;9.95;;;4.32;;
51248;SDS011;39642;47.556;18.728;2023-11-19T06:37:49;11.57;;;4.50;;
51248;SDS011;39642;47.556;18.728;2023-11-19T06:40:15;10.52;;;4.22;;
51248;SDS011;39642;47.556;18.728;2023-11-19T06:42:42;11.52;;;4.80;;
51248;SDS011;39642;47.556;18.728;2023-11-19T06:45:08;11.15;;;5.07;;
51248;SDS011;39642;47.556;18.728;2023-11-19T06:47:34;10.48;;;4.43;;
51248;SDS011;39642;47.556;18.728;2023-11-19T06:50:00;11.32;;;4.90;;
51248;SDS011;39642;47.556;18.728;2023-11-19T06:52:27;10.52;;;4.40;;
51248;SDS011;39642;47.556;18.728;2023-11-19T06:54:52;11.35;;;4.40;;
51248;SDS011;39642;47.556;18.728;2023-11-19T06:57:18;11.32;;;4.25;;
51248;SDS011;39642;47.556;18.728;2023-11-19T06:59:45;10.82;;;4.37;;
51248;SDS011;39642;47.556;18.728;2023-11-19T07:02:11;11.32;;;4.70;;
51248;SDS011;39642;47.556;18.728;2023-11-19T07:04:37;10.65;;;4.60;;
51248;SDS011;39642;47.556;18.728;2023-11-19T07:07:03;10.65;;;4.60;;
51248;SDS011;39642;47.556;18.728;2023-11-19T07:09:31;12.07;;;4.45;;
51248;SDS011;39642;47.556;18.728;2023-11-19T07:11:56;12.52;;;4.03;;
51248;SDS011;39642;47.556;18.728;2023-11-19T07:14:22;10.32;;;4.43;;
51248;SDS011;39642;47.556;18.728;2023-11-19T07:16:49;9.93;;;4.20;;
51248;SDS011;39642;47.556;18.728;2023-11-19T07:19:15;10.52;;;4.55;;
51248;SDS011;39642;47.556;18.728;2023-11-19T07:21:41;12.15;;;4.72;;
51248;SDS011;39642;47.556;18.728;2023-11-19T07:24:10;11.45;;;4.45;;
51248;SDS011;39642;47.556;18.728;2023-11-19T07:26:36;11.20;;;4.78;;
51248;SDS011;39642;47.556;18.728;2023-11-19T07:29:06;12.68;;;5.10;;
51248;SDS011;39642;47.556;18.728;2023-11-19T07:31:33;10.77;;;4.70;;
51248;SDS011;39642;47.556;18.728;2023-11-19T07:33:59;12.63;;;4.87;;
51248;SDS011;39642;47.556;18.728;2023-11-19T07:36:24;10.07;;;4.70;;
51248;SDS011;39642;47.556;18.728;2023-11-19T07:38:50;14.02;;;5.97;;
51248;SDS011;39642;47.556;18.728;2023-11-19T07:41:16;13.20;;;5.12;;
51248;SDS011;39642;47.556;18.728;2023-11-19T07:43:45;14.70;;;6.30;;
51248;SDS011;39642;47.556;18.728;2023-11-19T07:46:12;15.55;;;5.95;;
51248;SDS011;39642;47.556;18.728;2023-11-19T07:48:39;14.80;;;5.70;;
51248;SDS011;39642;47.556;18.728;2023-11-19T07:51:05;14.45;;;5.50;;
51248;SDS011;39642;47.556;18.728;2023-11-19T07:53:31;14.48;;;5.68;;
51248;SDS011;39642;47.556;18.728;2023-11-19T07:55:58;11.80;;;5.28;;
51248;SDS011;39642;47.556;18.728;2023-11-19T07:58:27;11.88;;;5.03;;
51248;SDS011;39642;47.556;18.728;2023-11-19T08:00:53;13.05;;;5.22;;
51248;SDS011;39642;47.556;18.728;2023-11-19T08:03:19;13.07;;;5.32;;
51248;SDS011;39642;47.556;18.728;2023-11-19T08:05:47;14.55;;;5.57;;
51248;SDS011;39642;47.556;18.728;2023-11-19T08:08:13;15.23;;;5.50;;
51248;SDS011;39642;47.556;18.728;2023-11-19T08:10:40;17.27;;;6.28;;
51248;SDS011;39642;47.556;18.728;2023-11-19T08:13:06;15.05;;;5.57;;
51248;SDS011;39642;47.556;18.728;2023-11-19T08:15:33;19.37;;;6.10;;
51248;SDS011;39642;47.556;18.728;2023-11-19T08:17:58;18.62;;;6.32;;
51248;SDS011;39642;47.556;18.728;2023-11-19T08:20:24;25.17;;;7.65;;
51248;SDS011;39642;47.556;18.728;2023-11-19T08:22:50;22.20;;;7.75;;
51248;SDS011;39642;47.556;18.728;2023-11-19T08:25:16;17.00;;;7.40;;
51248;SDS011;39642;47.556;18.728;2023-11-19T08:27:42;16.35;;;7.10;;
51248;SDS011;39642;47.556;18.728;2023-11-19T08:30:08;16.58;;;7.15;;
51248;SDS011;39642;47.556;18.728;2023-11-19T08:32:34;18.17;;;7.50;;
51248;SDS011;39642;47.556;18.728;2023-11-19T08:35:01;20.08;;;7.03;;
51248;SDS011;39642;47.556;18.728;2023-11-19T08:37:27;19.30;;;7.47;;
51248;SDS011;39642;47.556;18.728;2023-11-19T08:39:53;21.37;;;7.28;;
51248;SDS011;39642;47.556;18.728;2023-11-19T08:42:19;19.40;;;7.90;;
51248;SDS011;39642;47.556;18.728;2023-11-19T08:44:48;17.83;;;7.28;;
51248;SDS011;39642;47.556;18.728;2023-11-19T08:47:16;19.15;;;7.07;;
51248;SDS011;39642;47.556;18.728;2023-11-19T08:49:45;17.67;;;7.70;;
51248;SDS011;39642;47.556;18.728;2023-11-19T08:52:11;20.30;;;8.52;;
51248;SDS011;39642;47.556;18.728;2023-11-19T08:54:37;22.52;;;7.65;;
51248;SDS011;39642;47.556;18.728;2023-11-19T08:57:03;19.48;;;7.12;;
51248;SDS011;39642;47.556;18.728;2023-11-19T08:59:30;19.30;;;7.03;;
51248;SDS011;39642;47.556;18.728;2023-11-19T09:01:56;22.00;;;7.43;;
51248;SDS011;39642;47.556;18.728;2023-11-19T09:04:21;22.85;;;7.72;;
51248;SDS011;39642;47.556;18.728;2023-11-19T09:06:50;18.50;;;6.87;;
51248;SDS011;39642;47.556;18.728;2023-11-19T09:09:16;19.58;;;7.25;;
51248;SDS011;39642;47.556;18.728;2023-11-19T09:11:42;14.80;;;6.60;;
51248;SDS011;39642;47.556;18.728;2023-11-19T09:14:08;17.37;;;6.60;;
51248;SDS011;39642;47.556;18.728;2023-11-19T09:16:34;18.33;;;6.50;;
51248;SDS011;39642;47.556;18.728;2023-11-19T09:19:00;15.40;;;6.57;;
51248;SDS011;39642;47.556;18.728;2023-11-19T09:21:27;19.52;;;7.15;;
51248;SDS011;39642;47.556;18.728;2023-11-19T09:23:55;29.90;;;8.32;;
51248;SDS011;39642;47.556;18.728;2023-11-19T09:26:21;29.37;;;7.97;;
51248;SDS011;39642;47.556;18.728;2023-11-19T09:28:47;38.25;;;9.38;;
51248;SDS011;39642;47.556;18.728;2023-11-19T09:31:13;27.27;;;8.98;;
51248;SDS011;39642;47.556;18.728;2023-11-19T09:33:40;38.28;;;11.23;;
51248;SDS011;39642;47.556;18.728;2023-11-19T09:36:06;41.85;;;12.13;;
51248;SDS011;39642;47.556;18.728;2023-11-19T09:38:32;38.70;;;12.88;;
51248;SDS011;39642;47.556;18.728;2023-11-19T09:40:58;30.80;;;11.70;;
51248;SDS011;39642;47.556;18.728;2023-11-19T09:43:26;29.65;;;12.37;;
51248;SDS011;39642;47.556;18.728;2023-11-19T09:45:53;38.13;;;11.90;;
51248;SDS011;39642;47.556;18.728;2023-11-19T09:48:20;27.85;;;11.43;;
51248;SDS011;39642;47.556;18.728;2023-11-19T09:50:47;31.30;;;11.48;;
51248;SDS011;39642;47.556;18.728;2023-11-19T09:53:16;30.30;;;10.75;;
51248;SDS011;39642;47.556;18.728;2023-11-19T09:55:43;20.37;;;9.23;;
51248;SDS011;39642;47.556;18.728;2023-11-19T09:58:10;23.15;;;9.23;;
51248;SDS011;39642;47.556;18.728;2023-11-19T10:00:39;20.67;;;9.85;;
51248;SDS011;39642;47.556;18.728;2023-11-19T10:03:06;19.27;;;9.23;;
51248;SDS011;39642;47.556;18.728;2023-11-19T10:05:34;21.60;;;9.35;;
51248;SDS011;39642;47.556;18.728;2023-11-19T10:08:01;24.02;;;9.65;;
51248;SDS011;39642;47.556;18.728;2023-11-19T10:10:28;24.20;;;9.82;;
51248;SDS011;39642;47.556;18.728;2023-11-19T10:12:54;26.67;;;10.02;;
51248;SDS011;39642;47.556;18.728;2023-11-19T10:15:21;22.83;;;9.15;;
51248;SDS011;39642;47.556;18.728;2023-11-19T10:17:48;26.08;;;9.60;;
51248;SDS011;39642;47.556;18.728;2023-11-19T10:20:14;20.62;;;9.52;;
51248;SDS011;39642;47.556;18.728;2023-11-19T10:22:40;34.47;;;9.43;;
51248;SDS011;39642;47.556;18.728;2023-11-19T10:25:22;30.55;;;9.00;;
51248;SDS011;39642;47.556;18.728;2023-11-19T10:30:25;27.87;;;9.13;;
51248;SDS011;39642;47.556;18.728;2023-11-19T10:33:05;24.90;;;8.38;;
51248;SDS011;39642;47.556;18.728;2023-11-19T10:35:36;31.52;;;9.88;;
51248;SDS011;39642;47.556;18.728;2023-11-19T10:38:15;26.12;;;9.15;;
51248;SDS011;39642;47.556;18.728;2023-11-19T10:40:42;23.10;;;8.57;;
51248;SDS011;39642;47.556;18.728;2023-11-19T10:43:08;21.00;;;8.73;;
51248;SDS011;39642;47.556;18.728;2023-11-19T10:45:35;26.48;;;9.05;;
51248;SDS011;39642;47.556;18.728;2023-11-19T10:48:04;24.42;;;8.95;;
51248;SDS011;39642;47.556;18.728;2023-11-19T10:50:32;28.52;;;9.93;;
51248;SDS011;39642;47.556;18.728;2023-11-19T10:53:02;24.92;;;9.07;;
51248;SDS011;39642;47.556;18.728;2023-11-19T10:55:30;23.05;;;8.20;;
51248;SDS011;39642;47.556;18.728;2023-11-19T10:58:01;22.15;;;8.85;;
51248;SDS011;39642;47.556;18.728;2023-11-19T11:00:29;22.70;;;8.82;;
51248;SDS011;39642;47.556;18.728;2023-11-19T11:03:05;23.50;;;8.13;;
51248;SDS011;39642;47.556;18.728;2023-11-19T11:05:46;24.12;;;9.05;;
51248;SDS011;39642;47.556;18.728;2023-11-19T11:08:13;25.58;;;10.15;;
51248;SDS011;39642;47.556;18.728;2023-11-19T11:10:40;24.77;;;9.95;;
51248;SDS011;39642;47.556;18.728;2023-11-19T11:13:09;30.17;;;10.05;;
51248;SDS011;39642;47.556;18.728;2023-11-19T11:15:37;22.52;;;10.85;;
51248;SDS011;39642;47.556;18.728;2023-11-19T11:18:04;22.27;;;9.40;;
51248;SDS011;39642;47.556;18.728;2023-11-19T11:20:34;26.10;;;10.65;;
51248;SDS011;39642;47.556;18.728;2023-11-19T11:36:19;24.90;;;8.73;;
51248;SDS011;39642;47.556;18.728;2023-11-19T11:38:47;20.17;;;7.80;;
51248;SDS011;39642;47.556;18.728;2023-11-19T11:41:15;22.70;;;7.70;;
51248;SDS011;39642;47.556;18.728;2023-11-19T11:49:06;17.42;;;8.05;;
51248;SDS011;39642;47.556;18.728;2023-11-19T11:54:11;23.92;;;7.43;;
51248;SDS011;39642;47.556;18.728;2023-11-19T12:02:09;17.92;;;6.87;;
51248;SDS011;39642;47.556;18.728;2023-11-19T12:04:36;15.73;;;6.57;;
51248;SDS011;39642;47.556;18.728;2023-11-19T12:07:12;16.62;;;6.20;;
51248;SDS011;39642;47.556;18.728;2023-11-19T12:09:40;18.75;;;6.55;;
51248;SDS011;39642;47.556;18.728;2023-11-19T12:12:25;16.90;;;6.72;;
51248;SDS011;39642;47.556;18.728;2023-11-19T12:20:00;15.38;;;6.22;;
51248;SDS011;39642;47.556;18.728;2023-11-19T12:22:27;16.65;;;6.22;;
51248;SDS011;39642;47.556;18.728;2023-11-19T12:24:56;17.65;;;6.07;;
51248;SDS011;39642;47.556;18.728;2023-11-19T12:27:22;14.75;;;6.03;;
51248;SDS011;39642;47.556;18.728;2023-11-19T12:29:48;14.95;;;6.43;;
51248;SDS011;39642;47.556;18.728;2023-11-19T12:32:14;15.23;;;5.80;;
51248;SDS011;39642;47.556;18.728;2023-11-19T12:34:40;12.82;;;5.97;;
51248;SDS011;39642;47.556;18.728;2023-11-19T12:37:06;14.43;;;5.95;;
51248;SDS011;39642;47.556;18.728;2023-11-19T12:39:32;16.15;;;5.97;;
51248;SDS011;39642;47.556;18.728;2023-11-19T12:41:58;15.23;;;5.85;;
51248;SDS011;39642;47.556;18.728;2023-11-19T12:44:27;13.80;;;5.57;;
51248;SDS011;39642;47.556;18.728;2023-11-19T12:47:26;17.95;;;6.00;;
51248;SDS011;39642;47.556;18.728;2023-11-19T12:49:55;15.20;;;6.10;;
51248;SDS011;39642;47.556;18.728;2023-11-19T12:52:23;15.23;;;6.30;;
51248;SDS011;39642;47.556;18.728;2023-11-19T12:54:49;13.85;;;6.20;;
51248;SDS011;39642;47.556;18.728;2023-11-19T12:57:16;13.60;;;5.55;;
51248;SDS011;39642;47.556;18.728;2023-11-19T12:59:56;13.07;;;5.75;;
51248;SDS011;39642;47.556;18.728;2023-11-19T13:02:22;15.43;;;6.10;;
51248;SDS011;39642;47.556;18.728;2023-11-19T13:04:48;14.20;;;5.78;;
51248;SDS011;39642;47.556;18.728;2023-11-19T13:07:20;14.63;;;6.18;;
51248;SDS011;39642;47.556;18.728;2023-11-19T13:09:46;14.27;;;5.97;;
51248;SDS011;39642;47.556;18.728;2023-11-19T13:12:13;14.10;;;6.37;;
51248;SDS011;39642;47.556;18.728;2023-11-19T13:14:40;15.82;;;6.25;;
51248;SDS011;39642;47.556;18.728;2023-11-19T13:17:07;14.27;;;6.07;;
51248;SDS011;39642;47.556;18.728;2023-11-19T13:19:34;17.67;;;6.70;;
51248;SDS011;39642;47.556;18.728;2023-11-19T13:22:00;13.43;;;6.00;;
51248;SDS011;39642;47.556;18.728;2023-11-19T13:24:26;13.88;;;5.82;;
51248;SDS011;39642;47.556;18.728;2023-11-19T13:26:52;12.95;;;5.80;;
51248;SDS011;39642;47.556;18.728;2023-11-19T13:29:17;13.85;;;6.12;;
51248;SDS011;39642;47.556;18.728;2023-11-19T13:31:43;14.15;;;5.93;;
51248;SDS011;39642;47.556;18.728;2023-11-19T13:34:09;12.57;;;5.87;;
51248;SDS011;39642;47.556;18.728;2023-11-19T13:36:35;14.00;;;5.93;;
51248;SDS011;39642;47.556;18.728;2023-11-19T13:39:01;13.52;;;6.18;;
51248;SDS011;39642;47.556;18.728;2023-11-19T13:41:27;15.50;;;6.12;;
51248;SDS011;39642;47.556;18.728;2023-11-19T13:43:53;12.95;;;6.00;;
51248;SDS011;39642;47.556;18.728;2023-11-19T13:46:20;13.77;;;6.10;;
51248;SDS011;39642;47.556;18.728;2023-11-19T13:48:46;14.68;;;6.35;;
51248;SDS011;39642;47.556;18.728;2023-11-19T13:51:14;12.70;;;5.60;;
51248;SDS011;39642;47.556;18.728;2023-11-19T13:53:39;14.05;;;6.10;;
51248;SDS011;39642;47.556;18.728;2023-11-19T13:56:06;13.10;;;5.75;;
51248;SDS011;39642;47.556;18.728;2023-11-19T13:58:32;14.57;;;5.78;;
51248;SDS011;39642;47.556;18.728;2023-11-19T14:00:58;13.93;;;6.40;;
51248;SDS011;39642;47.556;18.728;2023-11-19T14:03:24;13.73;;;5.62;;
51248;SDS011;39642;47.556;18.728;2023-11-19T14:05:50;14.70;;;5.95;;
51248;SDS011;39642;47.556;18.728;2023-11-19T14:08:17;13.27;;;5.87;;
51248;SDS011;39642;47.556;18.728;2023-11-19T14:10:43;13.98;;;6.00;;
51248;SDS011;39642;47.556;18.728;2023-11-19T14:13:10;15.88;;;6.00;;
51248;SDS011;39642;47.556;18.728;2023-11-19T14:15:37;12.55;;;5.87;;
51248;SDS011;39642;47.556;18.728;2023-11-19T14:18:03;12.30;;;5.62;;
51248;SDS011;39642;47.556;18.728;2023-11-19T14:20:28;13.15;;;5.57;;
51248;SDS011;39642;47.556;18.728;2023-11-19T14:22:54;14.38;;;5.70;;
51248;SDS011;39642;47.556;18.728;2023-11-19T14:25:20;13.10;;;5.72;;
51248;SDS011;39642;47.556;18.728;2023-11-19T14:27:47;13.25;;;5.93;;
51248;SDS011;39642;47.556;18.728;2023-11-19T14:30:13;12.75;;;5.90;;
51248;SDS011;39642;47.556;18.728;2023-11-19T14:32:41;13.40;;;5.60;;
51248;SDS011;39642;47.556;18.728;2023-11-19T14:35:09;12.20;;;6.07;;
51248;SDS011;39642;47.556;18.728;2023-11-19T14:37:35;13.85;;;5.90;;
51248;SDS011;39642;47.556;18.728;2023-11-19T14:40:02;12.63;;;5.75;;
51248;SDS011;39642;47.556;18.728;2023-11-19T14:42:32;12.10;;;5.55;;
51248;SDS011;39642;47.556;18.728;2023-11-19T14:44:58;12.63;;;5.72;;
51248;SDS011;39642;47.556;18.728;2023-11-19T14:47:24;12.00;;;5.70;;
51248;SDS011;39642;47.556;18.728;2023-11-19T14:49:50;12.10;;;5.87;;
51248;SDS011;39642;47.556;18.728;2023-11-19T14:52:17;12.32;;;5.80;;